Chester, Idaho
Current Conditions -  °F | °C
As of 9:53 AM on Saturday 22 Nov 2014 (Local Time) from KRXE Reporting Station
Overcast Overcast  
Wind Chill: 28°   Ceiling: 1900
Heat Index: 36°   Visibility: 10mi
Dew Point: 32°   Wind: 12mph
Humidity: 86%   Direction: 210°SSW
Pressure: 29.64"   Gusts: NA
Location:  44°N, 111.57°W
Report Text: KRXE 221653Z AUTO 21010KT 10SM OVC019 02/00 A2964 RMK AO2 SLP047 T00220000
Loading
Personal Weather Stations






























Interactive Weather Map New forecast layout! Learn more

10-Day Weather Forecast

Advertisements
Track Severe Weather on mobile